createdAt,value
2017-12-17T00:01:47.018Z,12.80
2017-12-17T00:04:15.371Z,17.85
2017-12-17T00:06:44.165Z,17.92
2017-12-17T00:09:12.942Z,14.05
2017-12-17T00:11:40.982Z,17.05
2017-12-17T00:14:08.998Z,16.37
2017-12-17T00:16:38.442Z,19.52
2017-12-17T00:19:06.482Z,17.90
2017-12-17T00:21:35.268Z,15.80
2017-12-17T00:24:04.077Z,15.05
2017-12-17T00:26:32.090Z,14.18
2017-12-17T00:29:00.767Z,14.60
2017-12-17T00:31:29.450Z,15.52
2017-12-17T00:33:57.462Z,19.95
2017-12-17T00:36:26.603Z,17.73
2017-12-17T00:38:56.017Z,15.88
2017-12-17T00:41:24.369Z,16.70
2017-12-17T00:43:52.733Z,16.27
2017-12-17T00:46:21.850Z,18.73
2017-12-17T00:48:49.890Z,17.70
2017-12-17T00:51:19.056Z,15.40
2017-12-17T00:53:47.749Z,16.83
2017-12-17T00:56:16.434Z,18.80
2017-12-17T00:58:45.161Z,18.05
2017-12-17T01:01:14.342Z,17.40
2017-12-17T01:03:43.021Z,21.35
2017-12-17T01:06:11.702Z,18.17
2017-12-17T01:08:40.394Z,17.02
2017-12-17T01:11:08.751Z,15.77
2017-12-17T01:13:37.458Z,22.95
2017-12-17T01:16:05.485Z,17.80
2017-12-17T01:18:34.284Z,15.77
2017-12-17T01:21:02.668Z,20.70
2017-12-17T01:23:31.362Z,17.62
2017-12-17T01:26:00.095Z,17.58
2017-12-17T01:28:29.570Z,15.48
2017-12-17T01:30:57.954Z,18.50
2017-12-17T01:33:26.317Z,17.37
2017-12-17T01:35:54.990Z,18.45
2017-12-17T01:38:23.693Z,12.55
2017-12-17T01:40:51.714Z,14.18
2017-12-17T01:43:20.823Z,19.33
2017-12-17T01:45:49.518Z,15.75
2017-12-17T01:48:17.533Z,12.30
2017-12-17T01:50:45.558Z,12.48
2017-12-17T01:53:13.573Z,16.30
2017-12-17T01:55:41.942Z,11.45
2017-12-17T01:58:10.281Z,11.55
2017-12-17T02:00:38.634Z,11.80
2017-12-17T02:03:06.976Z,11.90
2017-12-17T02:05:35.034Z,9.88
2017-12-17T02:08:03.050Z,11.30
2017-12-17T02:10:31.105Z,10.93
2017-12-17T02:12:59.118Z,13.05
2017-12-17T02:15:28.247Z,10.95
2017-12-17T02:17:56.262Z,10.63
2017-12-17T02:20:25.069Z,13.45
2017-12-17T02:22:53.108Z,14.98
2017-12-17T02:25:21.167Z,14.15
2017-12-17T02:27:49.174Z,10.20
2017-12-17T02:30:17.993Z,17.12
2017-12-17T02:32:45.994Z,11.85
2017-12-17T02:35:15.248Z,14.27
2017-12-17T02:37:43.291Z,11.10
2017-12-17T02:40:11.303Z,11.32
2017-12-17T02:42:39.322Z,18.17
2017-12-17T02:45:07.367Z,14.98
2017-12-17T02:47:35.407Z,12.73
2017-12-17T02:50:06.150Z,14.60
2017-12-17T02:52:34.166Z,13.40
2017-12-17T02:55:02.218Z,16.30
2017-12-17T02:57:30.277Z,15.25
2017-12-17T02:59:58.345Z,14.93
2017-12-17T03:02:26.366Z,15.73
2017-12-17T03:04:54.367Z,16.02
2017-12-17T03:07:23.149Z,13.20
2017-12-17T03:09:51.926Z,17.83
2017-12-17T03:12:19.946Z,14.55
2017-12-17T03:14:48.725Z,14.15
2017-12-17T03:17:16.781Z,10.38
2017-12-17T03:19:45.575Z,11.25
2017-12-17T03:22:14.358Z,17.08
2017-12-17T03:24:43.158Z,16.30
2017-12-17T03:27:11.186Z,11.98
2017-12-17T03:29:39.194Z,13.60
2017-12-17T03:32:07.986Z,10.45
2017-12-17T03:34:36.331Z,10.85
2017-12-17T03:37:04.353Z,10.80
2017-12-17T03:39:32.365Z,11.02
2017-12-17T03:42:00.386Z,11.27
2017-12-17T03:44:28.394Z,11.75
2017-12-17T03:46:56.417Z,13.15
2017-12-17T03:49:25.203Z,11.98
2017-12-17T03:51:53.985Z,14.60
2017-12-17T03:54:22.761Z,11.30
2017-12-17T03:56:50.805Z,13.65
2017-12-17T03:59:18.813Z,13.35
2017-12-17T04:01:46.837Z,13.45
2017-12-17T04:04:14.875Z,10.80
2017-12-17T04:06:43.661Z,14.82
2017-12-17T04:09:12.440Z,12.57
2017-12-17T04:11:40.468Z,12.00
2017-12-17T04:14:08.473Z,19.15
2017-12-17T04:16:37.280Z,19.90
2017-12-17T04:19:06.067Z,13.98
2017-12-17T04:21:34.864Z,12.07
2017-12-17T04:24:03.629Z,12.60
2017-12-17T04:26:31.685Z,12.45
2017-12-17T04:29:00.089Z,14.63
2017-12-17T04:31:28.889Z,10.82
2017-12-17T04:33:57.661Z,13.15
2017-12-17T04:36:25.661Z,9.52
2017-12-17T04:38:54.004Z,11.85
2017-12-17T04:41:22.030Z,10.98
2017-12-17T04:43:50.046Z,13.90
2017-12-17T04:46:18.065Z,14.63
2017-12-17T04:48:46.078Z,12.25
2017-12-17T04:51:14.109Z,12.00
2017-12-17T04:53:42.118Z,11.05
2017-12-17T04:56:10.138Z,10.65
2017-12-17T04:58:38.137Z,11.27
2017-12-17T05:01:06.163Z,11.77
2017-12-17T05:03:35.271Z,11.90
2017-12-17T05:06:03.299Z,16.85
2017-12-17T05:08:31.305Z,11.27
2017-12-17T05:10:59.641Z,9.40
2017-12-17T05:13:27.658Z,13.43
2017-12-17T05:15:56.449Z,11.75
2017-12-17T05:18:25.323Z,13.75
2017-12-17T05:20:53.360Z,11.70
2017-12-17T05:23:21.375Z,11.07
2017-12-17T05:25:50.171Z,12.37
2017-12-17T05:28:19.845Z,15.05
2017-12-17T05:30:47.872Z,12.50
2017-12-17T05:33:15.883Z,11.12
2017-12-17T05:35:43.902Z,14.75
2017-12-17T05:38:12.680Z,13.20
2017-12-17T05:40:41.474Z,15.38
2017-12-17T05:43:09.481Z,11.68
2017-12-17T05:45:37.506Z,9.00
2017-12-17T05:48:06.283Z,11.68
2017-12-17T05:50:34.321Z,12.18
2017-12-17T05:53:02.327Z,13.25
2017-12-17T05:55:30.351Z,10.20
2017-12-17T05:57:58.352Z,9.60
2017-12-17T06:00:26.374Z,11.50
2017-12-17T06:02:54.389Z,9.93
2017-12-17T06:05:22.405Z,11.23
2017-12-17T06:07:51.006Z,11.73
2017-12-17T06:10:19.031Z,12.98
2017-12-17T06:12:47.055Z,11.70
2017-12-17T06:15:15.085Z,18.45
2017-12-17T06:17:43.890Z,16.42
2017-12-17T06:20:13.023Z,14.93
2017-12-17T06:22:41.046Z,13.02
2017-12-17T06:25:09.837Z,14.27
2017-12-17T06:27:38.619Z,15.75
2017-12-17T06:30:06.983Z,19.60
2017-12-17T06:32:35.043Z,13.57
2017-12-17T06:35:03.090Z,11.77
2017-12-17T06:37:31.127Z,18.08
2017-12-17T06:40:00.247Z,14.07
2017-12-17T06:42:28.367Z,15.48
2017-12-17T06:44:56.420Z,14.52
2017-12-17T06:47:24.500Z,14.77
2017-12-17T06:49:52.583Z,18.48
2017-12-17T06:52:20.638Z,14.38
2017-12-17T06:54:48.662Z,11.88
2017-12-17T06:57:20.046Z,14.57
2017-12-17T06:59:54.222Z,14.30
2017-12-17T07:02:30.152Z,15.55
2017-12-17T07:04:58.916Z,14.23
2017-12-17T07:07:27.295Z,13.65
2017-12-17T07:09:55.805Z,13.70
2017-12-17T07:12:24.903Z,17.20
2017-12-17T07:14:53.020Z,14.77
2017-12-17T07:17:21.114Z,17.27
2017-12-17T07:19:49.222Z,18.55
2017-12-17T07:22:17.983Z,11.98
2017-12-17T07:24:47.047Z,14.52
2017-12-17T07:27:15.309Z,13.27
2017-12-17T07:29:45.341Z,13.45
2017-12-17T07:32:15.200Z,11.02
2017-12-17T07:34:44.350Z,14.75
2017-12-17T07:37:13.470Z,18.55
2017-12-17T07:42:27.556Z,14.57
2017-12-17T07:45:16.419Z,13.48
2017-12-17T07:47:45.879Z,15.35
2017-12-17T07:50:13.959Z,13.95
2017-12-17T07:52:42.607Z,15.65
2017-12-17T07:55:10.675Z,14.70
2017-12-17T07:57:38.695Z,15.90
2017-12-17T08:00:07.075Z,11.95
2017-12-17T08:02:35.887Z,14.52
2017-12-17T08:31:16.005Z,14.90
2017-12-17T08:33:44.026Z,19.02
2017-12-17T08:36:12.395Z,16.90
2017-12-17T08:38:40.412Z,14.68
2017-12-17T08:41:08.453Z,12.43
2017-12-17T08:43:36.472Z,14.20
2017-12-17T08:46:05.030Z,12.48
2017-12-17T08:48:33.042Z,11.15
2017-12-17T08:51:01.070Z,12.70
2017-12-17T08:53:29.863Z,12.27
2017-12-17T08:55:58.671Z,14.38
2017-12-17T08:58:27.020Z,13.60
2017-12-17T09:00:55.824Z,13.93
2017-12-17T09:50:06.047Z,10.68
2017-12-17T09:52:34.060Z,10.25
2017-12-17T10:07:13.229Z,12.52
2017-12-17T10:30:59.702Z,9.07
2017-12-17T11:22:38.170Z,5.50
2017-12-17T11:28:04.902Z,5.50
2017-12-17T11:30:33.259Z,6.20
2017-12-17T11:33:02.311Z,5.22
2017-12-17T11:35:30.329Z,5.30
2017-12-17T11:37:59.093Z,6.32
2017-12-17T11:40:29.892Z,5.85
2017-12-17T11:43:01.061Z,6.22
2017-12-17T11:45:40.199Z,7.45
2017-12-17T11:48:08.199Z,6.93
2017-12-17T11:50:37.629Z,6.82
2017-12-17T11:53:22.625Z,7.10
2017-12-17T11:55:50.645Z,7.80
2017-12-17T11:58:19.743Z,8.60
2017-12-17T12:00:48.416Z,7.03
2017-12-17T12:03:16.418Z,8.15
2017-12-17T12:05:44.775Z,12.43
2017-12-17T12:08:13.564Z,16.58
2017-12-17T12:10:42.337Z,8.80
2017-12-17T12:13:10.347Z,10.45
2017-12-17T12:15:38.758Z,8.75
2017-12-17T12:18:07.096Z,8.93
2017-12-17T12:20:35.115Z,11.90
2017-12-17T12:23:03.224Z,12.88
2017-12-17T12:25:32.002Z,9.27
2017-12-17T12:28:00.342Z,9.98
2017-12-17T12:30:29.447Z,8.73
2017-12-17T12:32:57.775Z,9.57
2017-12-17T12:35:26.578Z,12.52
2017-12-17T12:37:54.578Z,10.23
2017-12-17T12:40:22.596Z,10.00
2017-12-17T12:42:51.365Z,10.13
2017-12-17T12:45:19.434Z,10.50
2017-12-17T12:47:47.785Z,8.73
2017-12-17T12:50:15.781Z,8.63
2017-12-17T12:52:43.797Z,8.23
2017-12-17T12:55:11.806Z,11.15
2017-12-17T12:57:39.831Z,9.82
2017-12-17T13:00:08.599Z,8.10
2017-12-17T13:02:37.390Z,11.88
2017-12-17T13:05:05.394Z,9.35
2017-12-17T13:07:33.396Z,10.57
2017-12-17T13:10:01.447Z,8.73
2017-12-17T13:12:29.444Z,7.78
2017-12-17T13:14:57.433Z,8.60
2017-12-17T13:17:25.444Z,10.70
2017-12-17T13:19:53.453Z,10.68
2017-12-17T13:22:21.477Z,8.68
2017-12-17T13:24:50.589Z,7.70
2017-12-17T13:33:42.274Z,6.50
2017-12-17T13:36:17.327Z,7.20
2017-12-17T13:38:45.354Z,10.43
2017-12-17T13:41:14.122Z,6.65
2017-12-17T13:43:43.833Z,5.78
2017-12-17T13:46:11.846Z,6.95
2017-12-17T13:48:40.168Z,6.85
2017-12-17T13:51:08.937Z,6.93
2017-12-17T13:53:37.511Z,6.90
2017-12-17T13:56:05.512Z,6.40
2017-12-17T13:58:33.546Z,21.60
2017-12-17T14:01:01.589Z,18.70
2017-12-17T17:27:57.794Z,10.30
2017-12-17T18:26:03.394Z,9.93
2017-12-17T18:28:32.094Z,7.65
2017-12-17T18:31:01.537Z,7.07
2017-12-17T18:33:30.229Z,10.30
2017-12-17T18:35:58.910Z,7.72
2017-12-17T18:38:27.557Z,8.27
2017-12-17T18:43:32.856Z,7.03
2017-12-17T18:46:02.437Z,7.93
2017-12-17T18:48:31.101Z,7.40
2017-12-17T18:51:00.518Z,7.15
2017-12-17T18:53:29.946Z,7.93
2017-12-17T18:55:58.274Z,8.70
2017-12-17T18:58:27.218Z,9.57
2017-12-17T19:00:56.081Z,7.30
2017-12-17T19:03:25.525Z,7.97
2017-12-17T19:05:54.386Z,8.10
2017-12-17T19:08:23.053Z,7.65
2017-12-17T19:10:52.507Z,11.25
2017-12-17T19:13:21.170Z,9.80
2017-12-17T19:15:49.488Z,7.75
2017-12-17T19:18:17.637Z,9.23
2017-12-17T19:20:45.625Z,7.72
2017-12-17T19:23:14.266Z,8.38
2017-12-17T19:25:43.713Z,8.65
2017-12-17T19:28:15.670Z,9.23
2017-12-17T19:30:50.790Z,9.82
2017-12-17T19:33:19.147Z,9.10
2017-12-17T19:35:48.439Z,8.80
2017-12-17T19:38:17.114Z,8.43
2017-12-17T19:40:45.797Z,10.30
2017-12-17T19:43:14.473Z,8.45
2017-12-17T19:45:43.172Z,10.13
2017-12-17T19:51:30.655Z,8.48
2017-12-17T19:54:13.883Z,9.52
2017-12-17T19:56:49.380Z,12.50
2017-12-17T19:59:18.069Z,7.82
2017-12-17T20:01:46.742Z,10.23
2017-12-17T20:04:15.417Z,9.40
2017-12-17T20:06:44.570Z,9.00
2017-12-17T20:15:01.813Z,7.20
2017-12-17T20:17:30.504Z,8.25
2017-12-17T20:20:27.998Z,8.30
2017-12-17T20:22:57.965Z,6.90
2017-12-17T20:25:27.526Z,6.87
2017-12-17T20:27:55.998Z,7.97
2017-12-17T20:36:47.849Z,7.80
2017-12-17T20:39:16.584Z,7.55
2017-12-17T20:41:46.028Z,7.75
2017-12-17T20:44:14.898Z,7.85
2017-12-17T20:46:47.292Z,6.97
2017-12-17T20:49:19.495Z,7.50
2017-12-17T20:51:48.946Z,7.65
2017-12-17T20:54:18.023Z,6.90
2017-12-17T20:56:46.701Z,8.15
2017-12-17T20:59:15.371Z,9.40
2017-12-17T21:05:08.841Z,9.43
2017-12-17T21:10:30.766Z,8.10
2017-12-17T21:12:59.436Z,16.58
2017-12-17T21:15:28.095Z,8.68
2017-12-17T21:17:56.782Z,7.28
2017-12-17T21:20:25.459Z,8.25
2017-12-17T21:22:55.803Z,8.35
2017-12-17T21:25:24.714Z,8.07
2017-12-17T21:27:53.422Z,7.50
2017-12-17T21:30:22.182Z,8.88
2017-12-17T21:32:50.208Z,8.82
2017-12-17T21:35:18.977Z,8.40
2017-12-17T21:37:47.004Z,7.85
2017-12-17T21:40:15.697Z,8.93
2017-12-17T21:42:44.628Z,10.63
2017-12-17T21:45:13.319Z,9.30
2017-12-17T21:47:42.092Z,9.18
2017-12-17T21:50:10.982Z,10.35
2017-12-17T21:52:39.777Z,11.50
2017-12-17T21:55:08.570Z,10.45
2017-12-17T21:57:37.338Z,8.50
2017-12-17T22:00:06.335Z,13.70
2017-12-17T22:02:35.051Z,9.15
2017-12-17T22:05:03.452Z,8.38
2017-12-17T22:07:32.918Z,11.00
2017-12-17T22:10:01.600Z,10.10
2017-12-17T22:12:30.304Z,10.77
2017-12-17T22:14:58.974Z,10.63
2017-12-17T22:17:27.663Z,8.88
2017-12-17T22:19:56.345Z,10.30
2017-12-17T22:22:25.055Z,9.90
2017-12-17T22:24:53.737Z,9.88
2017-12-17T22:27:22.397Z,9.75
2017-12-17T22:29:51.110Z,11.35
2017-12-17T22:32:19.790Z,9.73
2017-12-17T22:34:48.546Z,11.05
2017-12-17T22:37:18.026Z,10.90
2017-12-17T22:39:47.652Z,9.38
2017-12-17T22:42:16.406Z,9.80
2017-12-17T22:44:45.131Z,8.93
2017-12-17T22:47:13.487Z,8.82
2017-12-17T22:49:42.978Z,11.00
2017-12-17T22:52:12.133Z,11.30
2017-12-17T22:54:40.556Z,12.20
2017-12-17T22:57:09.270Z,9.30
2017-12-17T22:59:37.945Z,7.32
2017-12-17T23:02:07.116Z,10.30
2017-12-17T23:04:35.482Z,9.40
2017-12-17T23:07:03.901Z,10.85
2017-12-17T23:09:32.696Z,9.07
2017-12-17T23:12:01.806Z,9.05
2017-12-17T23:14:30.501Z,9.30
2017-12-17T23:16:58.601Z,11.38
2017-12-17T23:19:26.984Z,9.68
2017-12-17T23:21:55.665Z,8.88
2017-12-17T23:24:25.522Z,9.07
2017-12-17T23:26:55.007Z,10.30
2017-12-17T23:29:23.690Z,10.80
2017-12-17T23:31:52.076Z,12.50
2017-12-17T23:34:20.765Z,10.73
2017-12-17T23:36:49.455Z,11.73
2017-12-17T23:39:17.885Z,10.95
2017-12-17T23:41:48.006Z,8.50
2017-12-17T23:44:16.734Z,8.50
2017-12-17T23:46:45.143Z,10.05
2017-12-17T23:49:14.605Z,13.48
2017-12-17T23:51:43.042Z,9.48
2017-12-17T23:54:13.364Z,7.47
2017-12-17T23:56:43.339Z,8.05
2017-12-17T23:59:12.475Z,10.80
